Time;durP1;ratioP1;P1;durP2;ratioP2;P2;SDS_P1;SDS_P2;PMS_P1;PMS_P2;Temp;Humidity;BMP_temperature;BMP_pressure;BME280_temperature;BME280_humidity;BME280_pressure;Samples;Min_cycle;Max_cycle;Signal;HPM_P1;HPM_P2
2021/12/16 00:09:25;;;;;;;6.72;4.00;;;-2.70;99.90;;;;;;4406387;32;20164;-72
2021/12/16 00:35:46;;;;;;;10.00;4.55;;;-2.60;99.90;;;;;;4405278;32;20091;-73
2021/12/16 00:38:13;;;;;;;6.93;4.20;;;-2.60;99.90;;;;;;4405923;32;20089;-71
2021/12/16 00:40:42;;;;;;;8.57;4.10;;;-2.70;99.90;;;;;;4392459;32;20495;-72
2021/12/16 00:43:29;;;;;;;7.95;4.43;;;-2.60;99.90;;;;;;4392342;32;20075;-71
2021/12/16 00:56:32;;;;;;;8.40;4.62;;;-2.70;99.90;;;;;;4403649;32;20082;-72
2021/12/16 00:59:00;;;;;;;9.13;4.65;;;-2.70;99.90;;;;;;4392102;32;20463;-72
2021/12/16 01:01:58;;;;;;;9.27;4.55;;;-2.70;99.90;;;;;;4379562;32;20066;-71
2021/12/16 01:05:08;;;;;;;7.45;4.35;;;-2.70;99.90;;;;;;4382554;32;20078;-72
2021/12/16 01:41:00;;;;;;;8.05;4.37;;;-2.70;99.90;;;;;;4391314;32;20096;-72
2021/12/16 01:51:34;;;;;;;8.15;4.65;;;-2.70;99.90;;;;;;4391204;32;20179;-72
2021/12/16 01:56:50;;;;;;;9.13;4.37;;;-2.70;99.90;;;;;;4383636;32;20147;-73
2021/12/16 01:59:20;;;;;;;10.13;4.75;;;-2.70;99.90;;;;;;4392349;32;20074;-71
2021/12/16 02:01:47;;;;;;;8.70;4.25;;;-2.80;99.90;;;;;;4391052;32;20090;-72
2021/12/16 02:04:30;;;;;;;11.02;4.93;;;-2.70;99.90;;;;;;4403648;32;20089;-72
2021/12/16 02:09:33;;;;;;;8.73;4.75;;;-2.80;99.90;;;;;;4382855;32;20093;-72
2021/12/16 02:12:17;;;;;;;;;;;-2.70;99.90;;;;;;4382930;32;20085;-72
2021/12/16 02:29:12;;;;;;;9.90;4.45;;;-2.70;99.90;;;;;;4391703;32;20078;-73
2021/12/16 02:36:47;;;;;;;9.95;5.00;;;-2.60;99.90;;;;;;4391204;32;20507;-72
2021/12/16 02:39:19;;;;;;;8.00;4.57;;;-2.60;99.90;;;;;;4391167;32;20492;-72
2021/12/16 02:41:50;;;;;;;11.45;4.55;;;-2.60;99.90;;;;;;4378188;32;20467;-73
2021/12/16 02:50:00;;;;;;;8.90;4.72;;;-2.60;99.90;;;;;;4390983;32;20073;-71
2021/12/16 02:52:28;;;;;;;9.68;4.70;;;-2.70;99.90;;;;;;4378543;32;20081;-71
2021/12/16 02:54:55;;;;;;;12.95;5.15;;;-2.60;99.90;;;;;;4390172;32;20538;-72
2021/12/16 02:57:24;;;;;;;8.90;5.28;;;-2.70;99.90;;;;;;4365491;32;20107;-72
2021/12/16 02:59:52;;;;;;;8.77;5.00;;;-2.60;99.90;;;;;;4377583;32;20533;-72
2021/12/16 03:02:20;;;;;;;11.38;4.93;;;-2.60;99.90;;;;;;4377970;32;20147;-72
2021/12/16 03:04:50;;;;;;;9.88;4.95;;;-2.70;99.90;;;;;;4390485;32;20520;-71
2021/12/16 03:07:18;;;;;;;10.45;4.43;;;-2.60;99.90;;;;;;4389995;32;20569;-72
2021/12/16 03:20:44;;;;;;;10.23;5.22;;;-2.60;99.90;;;;;;4390018;32;20151;-72
2021/12/16 03:28:36;;;;;;;8.90;4.78;;;-2.50;99.90;;;;;;4402598;32;20085;-72
2021/12/16 03:39:08;;;;;;;7.75;4.18;;;-2.60;99.90;;;;;;4390705;32;20093;-72
2021/12/16 03:41:35;;;;;;;8.77;4.85;;;-2.60;99.90;;;;;;4391119;32;20181;-72
2021/12/16 03:44:10;;;;;;;11.12;4.95;;;-2.70;99.90;;;;;;4395764;32;20073;-72
2021/12/16 03:46:44;;;;;;;6.90;4.35;;;-2.70;99.90;;;;;;4409969;32;20069;-72
2021/12/16 03:49:19;;;;;;;10.40;5.10;;;-2.60;99.90;;;;;;4377644;32;20082;-72
2021/12/16 03:51:58;;;;;;;8.93;4.90;;;-2.70;99.90;;;;;;4389792;32;20070;-72
2021/12/16 03:54:32;;;;;;;9.02;4.30;;;-2.60;99.90;;;;;;4390482;32;20284;-72
2021/12/16 03:57:02;;;;;;;7.72;4.03;;;-2.60;99.90;;;;;;4377438;32;20452;-71
2021/12/16 03:59:32;;;;;;;7.12;3.85;;;-2.60;99.90;;;;;;4377256;32;20074;-72
2021/12/16 04:02:03;;;;;;;7.68;4.25;;;-2.60;99.90;;;;;;4390534;32;20089;-70
2021/12/16 04:04:30;;;;;;;7.43;3.87;;;-2.60;99.90;;;;;;4364860;32;20081;-72
2021/12/16 04:06:57;;;;;;;10.60;4.60;;;-2.50;99.90;;;;;;4389434;32;20074;-71
2021/12/16 04:09:24;;;;;;;7.28;4.07;;;-2.50;99.90;;;;;;4389403;32;20460;-71
2021/12/16 04:12:07;;;;;;;0.90;0.85;;;-2.50;99.90;;;;;;4389522;32;20104;-71
2021/12/16 04:14:36;;;;;;;11.25;3.67;;;-2.50;99.90;;;;;;4380448;32;20097;-71
2021/12/16 04:17:05;;;;;;;7.75;3.90;;;-2.50;99.90;;;;;;4392286;32;20089;-72
2021/12/16 04:19:33;;;;;;;7.20;4.18;;;-2.50;99.90;;;;;;4392894;32;20075;-71
2021/12/16 04:22:31;;;;;;;8.00;4.18;;;-2.60;99.90;;;;;;4394446;32;20070;-71
2021/12/16 04:25:05;;;;;;;3.20;1.50;;;-2.60;99.90;;;;;;4393515;32;20092;-71
2021/12/16 04:27:33;;;;;;;2.85;1.73;;;-2.60;99.90;;;;;;4379543;32;20206;-70
2021/12/16 04:30:00;;;;;;;1.55;1.23;;;-2.60;99.90;;;;;;4392351;32;20083;-70
2021/12/16 04:32:27;;;;;;;7.15;3.62;;;-2.60;99.90;;;;;;4393852;32;20459;-71
2021/12/16 04:34:53;;;;;;;5.53;2.83;;;-2.60;99.90;;;;;;4392505;32;20077;-71
2021/12/16 04:37:21;;;;;;;7.72;3.62;;;-2.50;99.90;;;;;;4392392;32;20084;-71
2021/12/16 04:39:48;;;;;;;7.20;3.90;;;-2.60;99.90;;;;;;4380518;32;20081;-73
2021/12/16 04:42:19;;;;;;;7.72;3.62;;;-2.50;99.90;;;;;;4392464;32;20158;-72
2021/12/16 04:44:46;;;;;;;6.78;3.67;;;-2.60;99.90;;;;;;4392004;32;20069;-71
2021/12/16 04:47:13;;;;;;;7.93;3.80;;;-2.60;99.90;;;;;;4391890;32;20100;-71
2021/12/16 04:49:40;;;;;;;7.45;4.22;;;-2.60;99.90;;;;;;4379482;32;20463;-71
2021/12/16 04:52:15;;;;;;;8.25;4.80;;;-2.60;99.90;;;;;;4392085;32;20077;-70
2021/12/16 04:54:43;;;;;;;7.10;3.85;;;-2.60;99.90;;;;;;4391899;32;20444;-71
2021/12/16 04:57:10;;;;;;;7.03;4.25;;;-2.60;99.90;;;;;;4404590;32;20085;-71
2021/12/16 04:59:39;;;;;;;10.43;4.87;;;-2.60;99.90;;;;;;4391946;32;20066;-71
2021/12/16 05:02:15;;;;;;;7.75;3.60;;;-2.50;99.90;;;;;;4391900;32;20092;-71
2021/12/16 05:04:42;;;;;;;8.25;3.67;;;-2.60;99.90;;;;;;4391857;32;20089;-72
2021/12/16 05:07:10;;;;;;;6.90;3.12;;;-2.60;99.90;;;;;;4397836;32;20153;-70
2021/12/16 05:12:40;;;;;;;8.07;4.03;;;-2.60;99.90;;;;;;4374878;32;20120;-72
2021/12/16 05:15:18;;;;;;;8.57;4.35;;;-2.50;99.90;;;;;;4373566;32;20082;-71
2021/12/16 05:17:49;;;;;;;8.40;4.15;;;-2.50;99.90;;;;;;4373109;32;20175;-72
2021/12/16 05:20:24;;;;;;;8.35;3.87;;;-2.50;99.90;;;;;;4371988;32;20109;-72
2021/12/16 05:28:32;;;;;;;8.02;3.95;;;-2.50;99.90;;;;;;4370880;32;20079;-71
2021/12/16 05:31:00;;;;;;;7.55;4.00;;;-2.50;99.90;;;;;;4376086;32;20441;-72
2021/12/16 05:33:27;;;;;;;6.80;4.00;;;-2.50;99.90;;;;;;4363554;32;20078;-72
2021/12/16 05:35:55;;;;;;;7.40;3.97;;;-2.50;99.90;;;;;;4375993;32;20078;-72
2021/12/16 05:38:23;;;;;;;6.85;3.50;;;-2.60;99.90;;;;;;4377510;32;20520;-71
2021/12/16 05:40:50;;;;;;;5.68;3.40;;;-2.50;99.90;;;;;;4363052;32;20073;-71
2021/12/16 05:43:22;;;;;;;5.65;3.35;;;-2.50;99.90;;;;;;4365256;32;20092;-70
2021/12/16 05:45:48;;;;;;;7.05;3.28;;;-2.50;99.90;;;;;;4378683;32;20073;-71
2021/12/16 05:48:18;;;;;;;8.68;3.97;;;-2.50;99.90;;;;;;4377491;32;20075;-71
2021/12/16 05:50:51;;;;;;;7.97;3.30;;;-2.50;99.90;;;;;;4375653;32;20456;-72
2021/12/16 05:53:19;;;;;;;7.12;3.50;;;-2.50;99.90;;;;;;4376104;32;20077;-71
2021/12/16 05:55:46;;;;;;;6.28;3.40;;;-2.50;99.90;;;;;;4375959;32;20066;-71
2021/12/16 05:58:18;;;;;;;6.57;3.53;;;-2.50;99.90;;;;;;4377169;32;20066;-70
2021/12/16 06:03:22;;;;;;;6.57;3.40;;;-2.50;99.90;;;;;;3833989;37;20058;-70
2021/12/16 06:05:50;;;;;;;6.32;3.37;;;-2.40;99.90;;;;;;4391200;32;20166;-72
2021/12/16 06:08:17;;;;;;;6.70;3.50;;;-2.40;99.90;;;;;;4378080;32;20153;-71
2021/12/16 06:13:34;;;;;;;8.75;3.97;;;-2.50;99.90;;;;;;4390330;32;20073;-71
2021/12/16 06:28:35;;;;;;;7.32;4.25;;;-2.40;99.90;;;;;;4393385;32;20156;-71
2021/12/16 06:31:02;;;;;;;6.78;3.75;;;-2.40;99.90;;;;;;4378301;32;20064;-71
2021/12/16 06:33:29;;;;;;;8.68;4.28;;;-2.30;99.90;;;;;;4377989;32;20089;-72
2021/12/16 06:35:56;;;;;;;6.03;3.65;;;-2.40;99.90;;;;;;4404377;32;20066;-71
2021/12/16 06:38:24;;;;;;;8.65;3.78;;;-2.30;99.90;;;;;;4390493;32;20084;-71
2021/12/16 06:40:53;;;;;;;5.40;3.17;;;-2.40;99.90;;;;;;4377874;32;20084;-71
2021/12/16 06:43:21;;;;;;;5.30;2.95;;;-2.30;99.90;;;;;;4365538;32;20077;-71
2021/12/16 06:45:49;;;;;;;7.60;3.30;;;-2.30;99.90;;;;;;4378394;32;20074;-72
2021/12/16 06:48:21;;;;;;;8.05;3.55;;;-2.20;99.90;;;;;;4390888;32;20153;-71
2021/12/16 06:50:56;;;;;;;7.60;3.58;;;-2.20;99.90;;;;;;4405068;32;20230;-71
2021/12/16 06:53:30;;;;;;;7.80;4.30;;;-2.20;99.90;;;;;;4386179;32;20097;-71
2021/12/16 06:56:20;;;;;;;6.75;3.70;;;-2.10;99.90;;;;;;4406008;32;20089;-72
2021/12/16 06:58:49;;;;;;;7.53;3.53;;;-2.20;99.90;;;;;;4390676;32;20116;-71
2021/12/16 07:04:18;;;;;;;6.45;3.90;;;-2.20;99.90;;;;;;4377598;32;20075;-71
2021/12/16 07:06:45;;;;;;;6.95;3.83;;;-2.20;99.90;;;;;;4377909;32;20100;-71
2021/12/16 07:09:18;;;;;;;8.52;4.57;;;-2.10;99.90;;;;;;4390188;32;20093;-71
2021/12/16 07:11:52;;;;;;;10.13;4.03;;;-2.10;99.90;;;;;;4387983;32;20178;-72
2021/12/16 07:14:24;;;;;;;7.72;3.95;;;-2.20;99.90;;;;;;4362650;32;20086;-73
2021/12/16 07:16:56;;;;;;;8.98;4.37;;;-2.10;99.90;;;;;;4363063;32;20078;-72
2021/12/16 07:19:23;;;;;;;7.72;3.87;;;-2.10;99.90;;;;;;4363344;32;20074;-71
2021/12/16 07:21:50;;;;;;;6.85;4.05;;;-2.20;99.90;;;;;;4375113;32;20172;-70
2021/12/16 07:24:18;;;;;;;9.52;5.47;;;-2.10;99.90;;;;;;4362257;32;20113;-71
2021/12/16 07:26:46;;;;;;;9.15;4.18;;;-2.10;99.90;;;;;;4380792;32;20139;-71
2021/12/16 07:29:13;;;;;;;9.18;4.00;;;-2.10;99.90;;;;;;4367320;32;20085;-71
2021/12/16 07:31:40;;;;;;;8.07;4.60;;;-2.20;99.90;;;;;;4375299;32;20445;-71
2021/12/16 07:34:09;;;;;;;9.90;4.57;;;-2.20;99.90;;;;;;4388662;32;20153;-71
2021/12/16 07:36:38;;;;;;;7.78;3.78;;;-2.20;99.90;;;;;;4366652;32;20554;-71
2021/12/16 07:39:12;;;;;;;9.15;3.92;;;-2.20;99.90;;;;;;4364406;32;20265;-71
2021/12/16 07:41:40;;;;;;;10.48;4.07;;;-2.20;99.90;;;;;;4364566;32;20097;-71
2021/12/16 07:44:11;;;;;;;7.65;4.07;;;-2.20;99.90;;;;;;4364501;32;20109;-70
2021/12/16 07:46:54;;;;;;;6.75;3.60;;;-2.20;99.90;;;;;;4340464;32;20504;-71
2021/12/16 07:49:26;;;;;;;7.00;4.10;;;-2.00;99.90;;;;;;4364480;32;20073;-72
2021/12/16 07:51:54;;;;;;;8.90;3.95;;;-2.10;99.90;;;;;;4364696;32;20097;-72
2021/12/16 07:54:22;;;;;;;10.10;3.70;;;-2.20;99.90;;;;;;4339408;32;20492;-71
2021/12/16 07:56:52;;;;;;;7.55;4.07;;;-2.10;99.90;;;;;;4351943;32;20127;-70
2021/12/16 07:59:19;;;;;;;7.72;4.15;;;-2.00;99.90;;;;;;4364197;32;20112;-72
2021/12/16 08:01:46;;;;;;;8.35;3.92;;;-2.10;99.90;;;;;;4364634;32;20496;-71
2021/12/16 08:04:22;;;;;;;8.55;3.90;;;-2.10;99.90;;;;;;4339045;32;20155;-70
2021/12/16 08:06:52;;;;;;;8.05;3.90;;;-2.00;99.90;;;;;;4353694;32;20082;-70
2021/12/16 08:09:19;;;;;;;6.45;3.80;;;-2.00;99.90;;;;;;4378692;32;20085;-71
2021/12/16 08:11:49;;;;;;;6.78;3.78;;;-2.00;99.90;;;;;;4364827;32;20089;-72
2021/12/16 08:14:17;;;;;;;8.35;4.53;;;-2.00;99.90;;;;;;4364266;32;20088;-71
2021/12/16 08:16:44;;;;;;;7.82;3.53;;;-2.00;99.90;;;;;;4377990;32;20093;-71
2021/12/16 08:19:38;;;;;;;9.73;4.20;;;-2.00;99.90;;;;;;3856107;37;20074;-72
2021/12/16 08:22:05;;;;;;;8.18;4.15;;;-1.90;99.90;;;;;;4399276;32;20233;-73
2021/12/16 08:24:32;;;;;;;6.65;3.53;;;-2.00;99.90;;;;;;4391187;32;20104;-73
2021/12/16 08:26:59;;;;;;;9.57;4.57;;;-1.90;99.90;;;;;;4405619;32;20062;-74
2021/12/16 08:29:25;;;;;;;7.72;4.28;;;-1.90;99.90;;;;;;4398767;32;20132;-74
2021/12/16 08:31:53;;;;;;;6.95;4.05;;;-1.90;99.90;;;;;;4407122;32;20080;-71
2021/12/16 08:34:20;;;;;;;8.52;4.40;;;-1.90;99.90;;;;;;4393284;32;20084;-73
2021/12/16 08:36:47;;;;;;;7.75;3.85;;;-2.00;99.90;;;;;;4405853;32;20065;-72
2021/12/16 08:39:14;;;;;;;9.02;4.75;;;-1.90;99.90;;;;;;4403663;32;20073;-73
2021/12/16 08:41:48;;;;;;;9.13;4.68;;;-1.90;99.90;;;;;;4408888;32;20596;-71
2021/12/16 08:44:16;;;;;;;7.75;4.18;;;-1.90;99.90;;;;;;4402379;32;20076;-73
2021/12/16 08:46:49;;;;;;;7.05;4.62;;;-1.80;99.90;;;;;;4409340;32;20137;-73
2021/12/16 08:49:16;;;;;;;8.15;4.53;;;-1.80;99.90;;;;;;4399116;32;20092;-74
2021/12/16 08:51:49;;;;;;;8.25;4.25;;;-1.70;99.90;;;;;;4404335;32;20074;-74
2021/12/16 08:54:17;;;;;;;8.88;4.15;;;-1.80;99.90;;;;;;4399962;32;20141;-75
2021/12/16 08:56:45;;;;;;;7.90;4.40;;;-1.80;99.90;;;;;;4394855;32;20153;-71
2021/12/16 08:59:12;;;;;;;10.25;5.30;;;-1.80;99.90;;;;;;4391378;32;20172;-72
2021/12/16 09:01:44;;;;;;;10.52;4.72;;;-1.80;99.90;;;;;;4408943;32;20507;-73
2021/12/16 09:04:12;;;;;;;8.23;4.70;;;-2.00;99.90;;;;;;4381523;32;20127;-71
2021/12/16 09:06:39;;;;;;;8.63;4.70;;;-1.90;99.90;;;;;;4405744;32;20092;-67
2021/12/16 09:09:07;;;;;;;7.60;4.22;;;-1.90;99.90;;;;;;4414036;32;20145;-66
2021/12/16 09:15:00;;;;;;;8.73;4.80;;;-1.80;99.90;;;;;;4398676;32;20378;-68
2021/12/16 09:17:27;;;;;;;9.73;5.32;;;-1.80;99.90;;;;;;4376350;32;20097;-66
2021/12/16 09:19:56;;;;;;;9.18;4.47;;;-1.80;99.90;;;;;;4375159;32;20503;-66
2021/12/16 09:22:26;;;;;;;9.60;4.90;;;-1.80;99.90;;;;;;4376927;32;20201;-69
2021/12/16 09:24:56;;;;;;;11.30;5.05;;;-1.70;99.90;;;;;;4367018;32;20098;-65
2021/12/16 09:27:23;;;;;;;11.63;5.25;;;-1.80;99.90;;;;;;4381005;32;20097;-66
2021/12/16 09:29:50;;;;;;;9.73;4.90;;;-1.70;99.90;;;;;;4367378;32;20069;-65
2021/12/16 09:32:18;;;;;;;8.48;5.28;;;-1.70;99.90;;;;;;4377950;32;20094;-67
2021/12/16 09:34:45;;;;;;;9.07;5.32;;;-1.70;99.90;;;;;;4375112;32;20082;-67
2021/12/16 09:37:12;;;;;;;8.80;5.00;;;-1.70;99.90;;;;;;4375009;32;20508;-65
2021/12/16 09:39:40;;;;;;;9.50;5.07;;;-1.70;99.90;;;;;;4362649;32;20541;-67
2021/12/16 09:42:09;;;;;;;9.98;5.10;;;-1.70;99.90;;;;;;4375506;32;20077;-67
2021/12/16 09:44:38;;;;;;;10.32;5.65;;;-1.70;99.90;;;;;;4382012;32;20588;-67
2021/12/16 09:47:09;;;;;;;11.52;5.55;;;-1.60;99.90;;;;;;4391063;32;20166;-67
2021/12/16 09:49:36;;;;;;;9.40;4.70;;;-1.60;99.90;;;;;;4374494;32;20082;-65
2021/12/16 09:52:06;;;;;;;8.18;4.43;;;-1.60;99.90;;;;;;4367225;32;20082;-66
2021/12/16 09:54:34;;;;;;;8.95;4.78;;;-1.50;99.90;;;;;;4388460;32;20152;-66
2021/12/16 09:57:02;;;;;;;7.55;4.45;;;-1.60;99.90;;;;;;4379793;32;20066;-65
2021/12/16 09:59:42;;;;;;;10.30;5.17;;;-1.60;99.90;;;;;;3839653;37;20074;-66
2021/12/16 10:02:15;;;;;;;7.12;3.67;;;-1.50;99.90;;;;;;4406574;32;20184;-68
2021/12/16 10:04:42;;;;;;;7.53;4.12;;;-1.50;99.90;;;;;;4390723;32;20185;-67
2021/12/16 10:09:47;;;;;;;;;;;-1.50;99.90;;;;;;3832770;37;19970;-67
2021/12/16 10:12:18;;;;;;;7.47;3.80;;;-1.40;99.90;;;;;;4383789;32;20029;-68
2021/12/16 10:17:48;;;;;;;7.10;4.28;;;-1.30;99.90;;;;;;4389755;32;20093;-69
2021/12/16 10:20:22;;;;;;;7.47;4.72;;;-1.30;99.90;;;;;;4388528;32;20113;-66
2021/12/16 10:22:50;;;;;;;7.97;4.07;;;-1.30;99.90;;;;;;4389407;32;20109;-68
2021/12/16 10:25:46;;;;;;;8.80;4.55;;;-1.40;99.90;;;;;;4404174;32;20069;-69
2021/12/16 10:28:24;;;;;;;7.25;4.47;;;-1.30;99.90;;;;;;4389546;32;20432;-67
2021/12/16 10:31:08;;;;;;;8.07;4.45;;;-1.30;99.90;;;;;;4400959;32;20098;-67
2021/12/16 10:34:07;;;;;;;8.13;4.55;;;-1.30;99.90;;;;;;4397236;32;20141;-68
2021/12/16 10:36:45;;;;;;;8.60;4.57;;;-1.30;99.90;;;;;;4399165;32;20093;-68
2021/12/16 10:39:12;;;;;;;8.95;4.45;;;-1.30;99.90;;;;;;4402699;32;20520;-70
2021/12/16 10:41:54;;;;;;;6.78;3.85;;;-1.30;99.90;;;;;;4402745;32;20170;-69
2021/12/16 10:44:24;;;;;;;6.03;3.92;;;-1.30;99.90;;;;;;4397450;32;20098;-67
2021/12/16 10:47:13;;;;;;;6.30;4.30;;;-1.30;99.90;;;;;;4405922;32;20089;-67
2021/12/16 10:49:43;;;;;;;8.52;4.93;;;-1.30;99.90;;;;;;4375675;32;20069;-69
2021/12/16 10:52:15;;;;;;;5.70;4.25;;;-1.20;99.90;;;;;;4403578;32;20088;-66
2021/12/16 10:54:49;;;;;;;5.70;4.00;;;-1.30;99.90;;;;;;4397320;32;20153;-65
2021/12/16 10:57:18;;;;;;;5.28;3.53;;;-1.20;99.90;;;;;;4390019;32;20193;-65
2021/12/16 10:59:54;;;;;;;6.47;3.75;;;-1.20;99.90;;;;;;4385018;32;20129;-68
2021/12/16 11:02:28;;;;;;;6.30;4.10;;;-1.10;99.90;;;;;;4399733;32;20191;-74
2021/12/16 11:05:01;;;;;;;7.82;4.37;;;-1.10;99.90;;;;;;4390108;32;20116;-71
2021/12/16 11:07:55;;;;;;;7.60;3.92;;;-1.10;99.90;;;;;;4387346;32;20488;-73
2021/12/16 11:10:31;;;;;;;8.27;4.45;;;-1.10;99.90;;;;;;4374506;32;20476;-71
2021/12/16 11:13:07;;;;;;;6.55;4.20;;;-1.10;99.90;;;;;;4389439;32;20102;-72
2021/12/16 11:15:52;;;;;;;6.72;4.22;;;-1.30;99.90;;;;;;4383466;32;20092;-72
2021/12/16 11:18:23;;;;;;;6.53;4.15;;;-1.30;99.90;;;;;;4379035;32;20077;-71
2021/12/16 11:20:55;;;;;;;7.00;4.25;;;-1.20;99.90;;;;;;4393655;32;20096;-69
2021/12/16 11:23:33;;;;;;;11.02;5.00;;;-1.20;99.90;;;;;;4392856;32;20190;-70
2021/12/16 11:26:07;;;;;;;6.37;4.45;;;-1.20;99.90;;;;;;4385223;32;20102;-67
2021/12/16 11:28:44;;;;;;;7.35;4.40;;;-1.20;99.90;;;;;;4381976;32;20109;-66
2021/12/16 11:31:17;;;;;;;6.90;4.15;;;-1.20;99.90;;;;;;4396431;32;20107;-70
2021/12/16 11:33:47;;;;;;;6.68;4.55;;;-1.20;99.90;;;;;;4366421;32;20163;-71
2021/12/16 11:36:23;;;;;;;6.03;3.62;;;-1.20;99.90;;;;;;4380892;32;20074;-69
2021/12/16 11:39:02;;;;;;;;;;;-1.30;99.90;;;;;;4381734;32;20066;-67
2021/12/16 11:41:41;;;;;;;6.05;3.53;;;-1.20;99.90;;;;;;4381846;32;19973;-69
2021/12/16 11:44:19;;;;;;;8.55;4.28;;;-1.20;99.90;;;;;;4377717;32;20074;-67
2021/12/16 11:46:57;;;;;;;7.68;3.55;;;-1.20;99.90;;;;;;4370903;32;20088;-67
2021/12/16 11:49:38;;;;;;;6.93;3.83;;;-1.10;99.90;;;;;;4391585;32;20109;-68
2021/12/16 11:52:15;;;;;;;5.40;3.75;;;-1.10;99.90;;;;;;4373446;32;20058;-67
2021/12/16 11:54:57;;;;;;;5.25;3.67;;;-1.10;99.90;;;;;;4388433;32;20507;-69
2021/12/16 11:57:35;;;;;;;5.12;3.10;;;-1.10;99.90;;;;;;4370361;32;20078;-68
2021/12/16 12:00:14;;;;;;;6.75;3.65;;;-1.00;99.90;;;;;;4382002;32;20074;-69
2021/12/16 12:02:55;;;;;;;5.70;3.53;;;-1.00;99.90;;;;;;4378730;32;20105;-68
2021/12/16 12:05:42;;;;;;;5.43;3.70;;;-1.00;99.90;;;;;;4381087;32;20468;-69
2021/12/16 12:08:23;;;;;;;5.62;3.40;;;-1.00;99.90;;;;;;4380992;32;20166;-70
2021/12/16 12:11:06;;;;;;;4.82;3.22;;;-1.00;99.90;;;;;;4376976;32;20613;-67
2021/12/16 12:13:41;;;;;;;4.72;2.62;;;-1.00;99.90;;;;;;4384258;32;20544;-66
2021/12/16 12:16:13;;;;;;;3.83;2.50;;;-0.90;99.90;;;;;;4360821;32;20535;-71
2021/12/16 12:19:12;;;;;;;4.25;2.67;;;-0.90;99.90;;;;;;4365400;32;20088;-72
2021/12/16 12:22:00;;;;;;;5.97;2.60;;;-0.90;99.90;;;;;;4392435;32;20074;-73
2021/12/16 12:24:37;;;;;;;3.15;2.30;;;-0.90;99.90;;;;;;4377820;32;20138;-70
2021/12/16 12:27:11;;;;;;;2.95;2.20;;;-0.80;99.90;;;;;;4391548;32;20114;-70
2021/12/16 12:29:45;;;;;;;5.10;2.40;;;-0.80;99.90;;;;;;4373947;32;20532;-72
2021/12/16 12:32:19;;;;;;;3.92;2.58;;;-0.80;99.90;;;;;;4367779;32;20178;-69
2021/12/16 12:34:53;;;;;;;2.90;2.25;;;-0.80;99.90;;;;;;4360631;32;20066;-71
2021/12/16 12:37:23;;;;;;;3.20;2.20;;;-0.80;99.90;;;;;;4381737;32;20124;-72
2021/12/16 12:39:56;;;;;;;4.30;2.40;;;-0.80;99.90;;;;;;4375524;32;20073;-69
2021/12/16 12:42:23;;;;;;;3.70;2.15;;;-0.80;99.90;;;;;;4367363;32;20116;-70
2021/12/16 12:44:50;;;;;;;3.22;2.20;;;-0.80;99.90;;;;;;4373220;32;20061;-75
2021/12/16 12:47:23;;;;;;;4.10;2.30;;;-0.80;99.90;;;;;;4382694;32;20065;-72
2021/12/16 12:49:50;;;;;;;3.53;2.65;;;-0.90;99.90;;;;;;4365334;32;20146;-72
2021/12/16 12:52:22;;;;;;;3.22;2.30;;;-0.80;99.90;;;;;;4380079;32;20159;-70
2021/12/16 12:55:13;;;;;;;4.22;2.83;;;-0.80;99.90;;;;;;4389344;32;20091;-71
2021/12/16 12:57:43;;;;;;;3.87;2.78;;;-0.80;99.90;;;;;;4378817;32;20065;-72
2021/12/16 13:00:28;;;;;;;4.50;2.97;;;-0.80;99.90;;;;;;4373315;32;20551;-71
2021/12/16 13:03:06;;;;;;;3.35;2.40;;;-0.80;99.90;;;;;;4365552;32;20077;-73
2021/12/16 13:05:34;;;;;;;2.92;2.15;;;-0.80;99.90;;;;;;4380705;32;20085;-71
2021/12/16 13:08:30;;;;;;;3.80;2.08;;;-0.80;99.90;;;;;;4390185;32;20073;-72
2021/12/16 13:11:06;;;;;;;3.67;2.60;;;-0.80;99.90;;;;;;4376880;32;20105;-74
2021/12/16 13:13:53;;;;;;;2.85;2.10;;;-0.80;99.90;;;;;;4380594;32;20085;-73
2021/12/16 13:25:23;;;;;;;3.90;2.45;;;-0.80;99.90;;;;;;4371365;32;20082;-73
2021/12/16 13:27:44;;;;;;;3.53;2.33;;;-0.80;99.90;;;;;;4387010;32;20099;-74
2021/12/16 13:30:27;;;;;;;3.35;2.00;;;-0.70;99.90;;;;;;4367332;32;20090;-72
2021/12/16 13:33:24;;;;;;;3.87;2.00;;;-0.80;99.90;;;;;;4364116;32;20097;-72
2021/12/16 13:36:15;;;;;;;2.55;2.20;;;-0.70;99.90;;;;;;4382227;32;20069;-70
2021/12/16 13:38:47;;;;;;;2.67;2.28;;;-0.80;99.90;;;;;;4372033;32;20168;-69
2021/12/16 13:41:23;;;;;;;3.45;2.40;;;-0.80;99.90;;;;;;4378131;32;20081;-71
2021/12/16 13:44:09;;;;;;;3.03;2.17;;;-0.70;99.90;;;;;;4368041;32;20494;-72
2021/12/16 13:47:14;;;;;;;2.78;2.10;;;-0.70;99.90;;;;;;4371940;32;20121;-72
2021/12/16 14:07:56;;;;;;;3.45;2.45;;;-0.70;99.90;;;;;;4375905;32;20168;-71
2021/12/16 14:10:50;;;;;;;3.17;2.33;;;-0.70;99.90;;;;;;4390126;32;20509;-70
2021/12/16 14:16:56;;;;;;;3.22;2.15;;;-0.80;99.90;;;;;;4384492;32;20166;-73
2021/12/16 14:25:11;;;;;;;3.75;2.08;;;-0.80;99.90;;;;;;4404553;32;20157;-72
2021/12/16 14:42:37;;;;;;;3.62;2.42;;;-0.90;99.90;;;;;;4384647;32;20084;-71
2021/12/16 14:45:36;;;;;;;2.85;2.08;;;-0.90;99.90;;;;;;4383426;32;20181;-71
2021/12/16 14:48:27;;;;;;;2.47;2.20;;;-0.90;99.90;;;;;;4395754;32;20089;-72
2021/12/16 14:51:11;;;;;;;4.25;2.62;;;-0.90;99.90;;;;;;4389980;32;20081;-72
2021/12/16 14:53:44;;;;;;;3.50;2.33;;;-0.90;99.90;;;;;;4393841;32;20542;-71
2021/12/16 14:56:26;;;;;;;2.85;2.40;;;-1.00;99.90;;;;;;4368694;32;20070;-72
2021/12/16 14:59:11;;;;;;;3.00;2.30;;;-1.00;99.90;;;;;;4386563;32;20077;-71
2021/12/16 15:01:49;;;;;;;4.40;2.75;;;-1.00;99.90;;;;;;4394322;32;20096;-71
2021/12/16 15:04:22;;;;;;;3.05;2.50;;;-1.00;99.90;;;;;;4392240;32;20065;-74
2021/12/16 15:06:56;;;;;;;2.85;2.20;;;-1.00;99.90;;;;;;4391034;32;20156;-71
2021/12/16 15:09:30;;;;;;;2.87;2.20;;;-1.00;99.90;;;;;;4395457;32;20551;-72
2021/12/16 15:15:11;;;;;;;4.75;2.40;;;-1.00;99.90;;;;;;4393763;32;20085;-73
2021/12/16 15:42:47;;;;;;;3.50;2.50;;;-1.00;99.90;;;;;;4360405;32;20079;-73
2021/12/16 15:45:23;;;;;;;2.95;2.20;;;-1.10;99.90;;;;;;4361594;32;20086;-72
2021/12/16 15:48:06;;;;;;;3.80;2.60;;;-1.00;99.90;;;;;;4362279;32;20094;-73
2021/12/16 15:50:58;;;;;;;3.22;2.55;;;-1.00;99.90;;;;;;4363632;32;20063;-73
2021/12/16 15:53:33;;;;;;;2.90;2.30;;;-1.00;99.90;;;;;;4363059;32;20160;-73
2021/12/16 15:56:07;;;;;;;3.73;2.53;;;-1.00;99.90;;;;;;4362250;32;20437;-73
2021/12/16 15:58:51;;;;;;;4.68;3.53;;;-1.00;99.90;;;;;;4362228;32;20070;-73
2021/12/16 16:01:30;;;;;;;4.12;2.67;;;-1.00;99.90;;;;;;4349752;32;20613;-74
2021/12/16 16:04:00;;;;;;;3.45;2.20;;;-1.00;99.90;;;;;;4363883;32;20117;-73
2021/12/16 16:06:27;;;;;;;3.35;2.60;;;-1.00;99.90;;;;;;4366625;32;20159;-74
2021/12/16 16:08:59;;;;;;;2.67;2.30;;;-1.00;99.90;;;;;;4349599;32;20086;-72
2021/12/16 16:11:31;;;;;;;3.45;2.45;;;-0.90;99.90;;;;;;4349227;32;20156;-73
2021/12/16 16:14:04;;;;;;;3.92;2.50;;;-0.90;99.90;;;;;;4362264;32;20150;-73
2021/12/16 16:16:49;;;;;;;3.17;2.58;;;-0.90;99.90;;;;;;4361621;32;20072;-72
2021/12/16 16:19:31;;;;;;;4.07;2.72;;;-0.90;99.90;;;;;;4361985;32;20089;-73
2021/12/16 16:24:24;;;;;;;5.77;2.40;;;-0.90;99.90;;;;;;3841991;37;20070;-74
2021/12/16 16:26:55;;;;;;;3.78;2.78;;;-0.90;99.90;;;;;;4405327;32;20181;-73
2021/12/16 16:29:26;;;;;;;3.97;2.58;;;-0.90;99.90;;;;;;4404757;32;20080;-73
2021/12/16 16:31:53;;;;;;;3.70;2.45;;;-0.90;99.90;;;;;;4403202;32;20089;-73
2021/12/16 16:34:28;;;;;;;4.10;2.72;;;-0.90;99.90;;;;;;4403146;32;20097;-72
2021/12/16 16:37:06;;;;;;;4.15;2.80;;;-0.80;99.90;;;;;;4403237;32;20152;-73
2021/12/16 16:39:39;;;;;;;3.80;2.80;;;-0.80;99.90;;;;;;4390864;32;20074;-72
2021/12/16 16:42:11;;;;;;;4.03;2.75;;;-0.90;99.90;;;;;;4402853;32;20081;-73
2021/12/16 16:44:38;;;;;;;2.95;2.35;;;-0.90;99.90;;;;;;4402845;32;20141;-72
2021/12/16 16:47:27;;;;;;;3.37;2.35;;;-0.90;99.90;;;;;;4405992;32;20538;-73
2021/12/16 16:49:57;;;;;;;3.45;2.50;;;-0.90;99.90;;;;;;4404243;32;20531;-73
2021/12/16 16:52:29;;;;;;;3.50;2.40;;;-0.80;99.90;;;;;;4403109;32;20095;-73
2021/12/16 16:55:10;;;;;;;3.95;2.70;;;-0.90;99.90;;;;;;4390428;32;20073;-72
2021/12/16 16:57:52;;;;;;;4.57;2.62;;;-0.90;99.90;;;;;;4390286;32;20511;-73
2021/12/16 17:00:26;;;;;;;3.55;2.47;;;-0.90;99.90;;;;;;4402822;32;20089;-73
2021/12/16 17:03:17;;;;;;;2.95;2.40;;;-0.90;99.90;;;;;;4390566;32;20154;-72
2021/12/16 17:05:59;;;;;;;3.22;2.10;;;-0.90;99.90;;;;;;4390445;32;20086;-73
2021/12/16 17:08:35;;;;;;;3.47;2.33;;;-0.90;99.90;;;;;;4390250;32;20154;-72
2021/12/16 17:11:23;;;;;;;3.03;2.50;;;-0.90;99.90;;;;;;4378074;32;20150;-72
2021/12/16 17:14:10;;;;;;;3.50;2.40;;;-0.90;99.90;;;;;;4402309;32;20077;-73
2021/12/16 17:19:36;;;;;;;3.67;2.45;;;-0.90;99.90;;;;;;4393261;32;20146;-73
2021/12/16 17:22:11;;;;;;;3.35;2.20;;;-0.90;99.90;;;;;;4390392;32;20157;-73
2021/12/16 17:24:47;;;;;;;3.60;2.58;;;-0.90;99.90;;;;;;4377342;32;20102;-72
2021/12/16 17:27:17;;;;;;;3.70;2.40;;;-0.90;99.90;;;;;;4403124;32;20162;-73
2021/12/16 17:30:11;;;;;;;4.43;2.40;;;-0.90;99.90;;;;;;4403197;32;20070;-73
2021/12/16 17:32:43;;;;;;;3.17;2.45;;;-0.90;99.90;;;;;;4368563;32;20073;-73
2021/12/16 17:35:34;;;;;;;3.78;2.40;;;-0.80;99.90;;;;;;4393039;32;20065;-73
2021/12/16 17:38:15;;;;;;;3.47;2.60;;;-0.90;99.90;;;;;;4380156;32;20459;-72
2021/12/16 17:40:56;;;;;;;3.10;2.25;;;-0.90;99.90;;;;;;4392268;32;20134;-73
2021/12/16 17:43:34;;;;;;;2.53;1.98;;;-0.80;99.90;;;;;;4367103;32;20109;-74